Time;durP1;ratioP1;P1;durP2;ratioP2;P2;SDS_P1;SDS_P2;PMS_P1;PMS_P2;Temp;Humidity;BMP_temperature;BMP_pressure;BME280_temperature;BME280_humidity;BME280_pressure;Samples;Min_cycle;Max_cycle;Signal;HPM_P1;HPM_P2
2022/09/22 00:00:05;;;;;;;12.17;7.00;;;7.80;1.00;;;;;;5052966;28;20182;-44
2022/09/22 00:02:30;;;;;;;12.20;6.53;;;7.70;1.00;;;;;;5052778;28;20173;-44
2022/09/22 00:04:56;;;;;;;11.60;6.93;;;7.70;1.00;;;;;;5053118;28;20880;-53
2022/09/22 00:07:22;;;;;;;10.97;6.53;;;7.70;1.00;;;;;;5052711;28;20177;-44
2022/09/22 00:09:49;;;;;;;10.43;6.90;;;7.70;1.00;;;;;;5052818;28;20261;-44
2022/09/22 00:12:14;;;;;;;11.77;7.07;;;7.60;1.00;;;;;;5052489;28;20499;-44
2022/09/22 00:14:40;;;;;;;11.77;7.47;;;7.60;1.00;;;;;;5052266;28;20926;-44
2022/09/22 00:17:05;;;;;;;8.77;6.53;;;7.60;1.00;;;;;;5052750;28;20545;-44
2022/09/22 00:19:34;;;;;;;11.57;6.67;;;7.50;1.00;;;;;;5052594;28;20197;-47
2022/09/22 00:22:00;;;;;;;11.50;7.63;;;7.50;1.00;;;;;;5052662;28;20559;-46
2022/09/22 00:24:28;;;;;;;11.30;6.20;;;7.50;1.00;;;;;;5052835;28;20441;-53
2022/09/22 00:26:56;;;;;;;16.57;7.60;;;7.60;1.00;;;;;;5051771;28;20809;-47
2022/09/22 00:29:23;;;;;;;12.20;6.77;;;7.60;1.00;;;;;;5052324;28;20405;-46
2022/09/22 00:31:49;;;;;;;12.43;7.37;;;7.60;16.80;;;;;;5052332;28;20479;-47
2022/09/22 00:34:18;;;;;;;14.13;7.00;;;7.60;41.70;;;;;;5052477;28;20417;-47
2022/09/22 00:36:44;;;;;;;9.30;6.50;;;7.60;71.20;;;;;;5052328;28;20419;-47
2022/09/22 00:39:30;;;;;;;10.20;7.17;;;7.60;82.20;;;;;;5051310;28;20433;-47
2022/09/22 00:41:56;;;;;;;15.30;6.97;;;7.50;84.10;;;;;;5029461;28;20437;-46
2022/09/22 00:44:39;;;;;;;13.27;6.73;;;7.50;88.70;;;;;;5029794;28;20426;-47
2022/09/22 00:47:24;;;;;;;11.67;7.13;;;7.50;99.90;;;;;;5029813;28;20198;-47
2022/09/22 00:49:56;;;;;;;12.40;6.57;;;7.50;99.90;;;;;;5029637;28;20417;-46
2022/09/22 00:52:30;;;;;;;10.47;7.00;;;7.40;99.90;;;;;;5029832;28;20560;-47
2022/09/22 00:54:59;;;;;;;10.80;6.73;;;7.40;99.90;;;;;;5031159;28;20413;-47
2022/09/22 00:57:32;;;;;;;12.23;8.27;;;7.30;97.70;;;;;;5030988;28;20438;-46
2022/09/22 00:59:58;;;;;;;13.20;6.80;;;7.30;96.40;;;;;;5030673;28;20410;-46
2022/09/22 01:02:24;;;;;;;9.70;6.90;;;7.30;99.90;;;;;;5031031;28;20429;-47
2022/09/22 01:04:51;;;;;;;13.80;6.93;;;7.20;99.90;;;;;;5031112;28;20417;-47
2022/09/22 01:07:20;;;;;;;9.60;7.23;;;7.20;99.90;;;;;;5031003;28;20230;-47
2022/09/22 01:09:46;;;;;;;12.50;6.87;;;7.20;99.90;;;;;;5014370;28;20528;-46
2022/09/22 01:12:11;;;;;;;10.70;7.33;;;7.20;99.90;;;;;;5035557;28;21110;-47
2022/09/22 01:14:57;;;;;;;12.03;6.40;;;7.10;99.90;;;;;;5035606;28;20199;-46
2022/09/22 01:17:47;;;;;;;9.30;6.63;;;7.10;99.90;;;;;;5032091;28;20198;-47
2022/09/22 01:20:37;;;;;;;9.63;7.63;;;7.10;99.90;;;;;;5033216;28;21064;-46
2022/09/22 01:23:39;;;;;;;13.80;7.67;;;7.10;99.90;;;;;;5033837;28;20406;-46
2022/09/22 01:26:17;;;;;;;13.90;6.80;;;7.10;99.90;;;;;;5032112;28;20484;-47
2022/09/22 01:28:54;;;;;;;14.13;6.83;;;7.00;99.90;;;;;;5032811;28;20468;-46
2022/09/22 01:31:33;;;;;;;7.80;6.80;;;7.00;99.90;;;;;;5032808;28;21041;-47
2022/09/22 01:34:18;;;;;;;10.67;7.30;;;7.00;99.90;;;;;;5033366;28;20457;-47
2022/09/22 01:36:47;;;;;;;18.70;7.80;;;7.00;99.90;;;;;;5033105;28;20409;-47
2022/09/22 01:39:33;;;;;;;9.00;6.27;;;7.00;99.90;;;;;;5032047;28;20405;-51
2022/09/22 01:42:15;;;;;;;11.87;6.87;;;7.00;99.90;;;;;;5032986;28;20402;-47
2022/09/22 01:45:07;;;;;;;9.20;6.27;;;6.90;99.90;;;;;;5032400;28;20406;-47
2022/09/22 01:47:43;;;;;;;12.60;6.83;;;6.90;99.90;;;;;;5029895;28;20456;-46
2022/09/22 01:50:37;;;;;;;11.37;7.37;;;6.90;99.90;;;;;;5033281;28;20406;-46
2022/09/22 01:53:08;;;;;;;11.47;6.73;;;6.90;99.90;;;;;;5031859;28;20485;-47
2022/09/22 01:55:39;;;;;;;13.00;7.03;;;6.80;99.90;;;;;;5031566;28;20414;-46
2022/09/22 01:58:31;;;;;;;12.10;7.70;;;6.80;99.90;;;;;;5030700;28;20895;-47
2022/09/22 02:01:01;;;;;;;9.50;7.53;;;6.80;99.90;;;;;;5031264;28;20426;-47
2022/09/22 02:04:00;;;;;;;13.33;7.60;;;6.80;99.90;;;;;;5030770;28;20402;-47
2022/09/22 02:06:36;;;;;;;12.50;7.70;;;6.90;99.90;;;;;;5026875;28;20450;-46
2022/09/22 02:09:05;;;;;;;12.93;8.47;;;6.90;99.90;;;;;;5030473;28;20753;-46
2022/09/22 02:11:32;;;;;;;11.77;7.70;;;6.90;99.90;;;;;;5030273;28;20461;-46
2022/09/22 02:13:58;;;;;;;12.27;8.40;;;6.90;99.90;;;;;;5042616;28;20666;-47
2022/09/22 02:16:25;;;;;;;11.33;7.57;;;6.90;99.90;;;;;;5050650;28;20423;-47
2022/09/22 02:19:07;;;;;;;14.20;8.13;;;6.90;99.90;;;;;;5050683;28;20402;-46
2022/09/22 02:21:32;;;;;;;10.47;7.90;;;6.90;99.90;;;;;;5050709;28;20411;-47
2022/09/22 02:23:59;;;;;;;11.93;8.00;;;6.90;99.90;;;;;;5050088;28;20824;-47
2022/09/22 02:26:28;;;;;;;16.17;9.73;;;6.90;99.90;;;;;;5050409;28;20237;-46
2022/09/22 02:29:01;;;;;;;11.80;8.63;;;6.90;99.90;;;;;;5050279;28;20500;-46
2022/09/22 02:31:30;;;;;;;15.40;9.00;;;6.90;99.90;;;;;;5050535;28;20472;-47
2022/09/22 02:33:56;;;;;;;14.23;8.17;;;7.00;99.90;;;;;;5050673;28;20401;-46
2022/09/22 02:36:46;;;;;;;13.97;8.80;;;7.00;99.90;;;;;;5050590;28;20882;-47
2022/09/22 02:39:42;;;;;;;9.43;8.00;;;7.00;99.90;;;;;;5050459;28;20413;-47
2022/09/22 02:42:23;;;;;;;13.87;8.50;;;7.00;99.90;;;;;;5048663;28;20449;-46
2022/09/22 02:45:08;;;;;;;11.50;7.87;;;7.10;99.90;;;;;;5050028;28;20493;-46
2022/09/22 02:47:44;;;;;;;16.53;8.20;;;7.10;99.90;;;;;;5050581;28;20438;-46
2022/09/22 02:50:12;;;;;;;15.97;8.43;;;7.20;99.90;;;;;;5051170;28;20435;-47
2022/09/22 02:52:39;;;;;;;13.73;8.60;;;7.20;99.90;;;;;;5054396;28;20461;-46
2022/09/22 02:55:06;;;;;;;13.17;9.13;;;7.20;99.90;;;;;;5054444;28;20454;-47
2022/09/22 02:57:32;;;;;;;12.60;8.40;;;7.20;99.90;;;;;;5054276;28;20405;-46
2022/09/22 02:59:58;;;;;;;12.20;9.00;;;7.20;99.90;;;;;;5053999;28;20755;-47
2022/09/22 03:02:23;;;;;;;13.40;8.40;;;7.20;99.90;;;;;;5052950;28;20190;-47
2022/09/22 03:04:50;;;;;;;15.70;8.10;;;7.20;99.90;;;;;;5054309;28;20190;-47
2022/09/22 03:07:16;;;;;;;11.67;7.80;;;7.20;99.90;;;;;;5054108;28;20273;-47
2022/09/22 03:09:42;;;;;;;11.70;8.60;;;7.20;99.90;;;;;;5053739;28;20439;-47
2022/09/22 03:12:08;;;;;;;10.37;8.97;;;7.20;99.90;;;;;;5053523;28;20452;-46
2022/09/22 03:14:33;;;;;;;11.43;8.07;;;7.20;99.90;;;;;;5053794;28;20198;-46
2022/09/22 03:16:59;;;;;;;10.93;8.67;;;7.20;99.90;;;;;;5053863;28;20171;-47
2022/09/22 03:19:24;;;;;;;14.27;9.13;;;7.20;99.90;;;;;;5053015;28;20175;-47
2022/09/22 03:21:50;;;;;;;15.30;9.40;;;7.20;99.90;;;;;;5054203;28;20576;-47
2022/09/22 03:24:15;;;;;;;12.23;9.10;;;7.10;99.90;;;;;;5053813;28;20190;-47
2022/09/22 03:26:41;;;;;;;18.87;9.37;;;7.10;1.00;;;;;;5053517;28;20722;-46
2022/09/22 03:29:07;;;;;;;13.47;9.57;;;7.20;1.00;;;;;;5053577;28;20864;-47
2022/09/22 03:31:33;;;;;;;13.33;9.70;;;7.10;1.00;;;;;;5053915;28;20629;-46
2022/09/22 03:33:58;;;;;;;19.33;11.57;;;7.10;1.00;;;;;;5053837;28;20840;-46
2022/09/22 03:36:24;;;;;;;14.03;9.20;;;7.10;1.00;;;;;;5053450;28;20185;-47
2022/09/22 03:38:50;;;;;;;11.63;9.00;;;7.10;1.00;;;;;;5053211;28;20228;-47
2022/09/22 03:41:16;;;;;;;22.30;12.83;;;7.00;1.00;;;;;;5053433;28;20185;-47
2022/09/22 03:43:42;;;;;;;12.20;9.00;;;7.00;1.00;;;;;;5053394;28;20401;-46
2022/09/22 03:46:08;;;;;;;16.13;9.67;;;6.90;1.00;;;;;;5053781;28;20463;-47
2022/09/22 03:48:33;;;;;;;17.10;10.40;;;6.90;1.00;;;;;;5053336;28;20216;-46
2022/09/22 03:50:59;;;;;;;16.07;10.17;;;6.90;1.00;;;;;;5053037;28;20696;-46
2022/09/22 03:53:25;;;;;;;12.57;9.63;;;6.90;1.00;;;;;;5053396;28;20201;-53
2022/09/22 03:55:50;;;;;;;11.13;9.20;;;6.90;1.00;;;;;;5053228;28;20240;-46
2022/09/22 03:58:18;;;;;;;12.20;9.30;;;6.90;1.00;;;;;;5053165;28;20437;-47
2022/09/22 04:00:44;;;;;;;10.00;8.33;;;6.80;1.00;;;;;;5052380;28;20171;-47
2022/09/22 04:03:11;;;;;;;12.57;8.90;;;6.80;1.00;;;;;;5052483;28;20499;-46
2022/09/22 04:05:36;;;;;;;13.43;8.80;;;6.80;1.00;;;;;;5052755;28;20607;-46
2022/09/22 04:08:02;;;;;;;17.33;11.23;;;6.70;1.00;;;;;;5052723;28;20420;-47
2022/09/22 04:10:28;;;;;;;12.80;10.00;;;6.70;1.00;;;;;;5052720;28;20445;-46
2022/09/22 04:12:53;;;;;;;10.50;8.40;;;6.70;1.00;;;;;;5052614;28;20610;-47
2022/09/22 04:15:19;;;;;;;18.50;9.53;;;6.70;1.00;;;;;;5052888;28;20170;-47
2022/09/22 04:17:45;;;;;;;12.83;9.60;;;6.60;1.00;;;;;;5053084;28;20187;-48
2022/09/22 04:20:11;;;;;;;16.20;9.17;;;6.70;1.00;;;;;;5052735;28;20194;-47
2022/09/22 04:22:37;;;;;;;11.87;10.20;;;6.60;1.00;;;;;;5052781;28;20178;-47
2022/09/22 04:25:04;;;;;;;14.93;11.00;;;6.60;1.00;;;;;;5052925;28;20515;-47
2022/09/22 04:27:29;;;;;;;12.60;9.70;;;6.60;1.00;;;;;;5052450;28;20429;-45
2022/09/22 04:29:56;;;;;;;13.90;10.27;;;6.60;1.00;;;;;;5052300;28;20750;-45
2022/09/22 04:32:22;;;;;;;13.30;9.47;;;6.60;1.00;;;;;;5053104;28;20214;-45
2022/09/22 04:34:48;;;;;;;12.37;9.17;;;6.60;1.00;;;;;;5052754;28;20464;-45
2022/09/22 04:37:14;;;;;;;16.10;9.30;;;6.50;1.00;;;;;;5052335;28;20402;-45
2022/09/22 04:39:39;;;;;;;10.20;8.70;;;6.50;1.00;;;;;;5052325;28;20193;-45
2022/09/22 04:42:07;;;;;;;11.53;9.53;;;6.40;1.00;;;;;;5051903;28;20405;-45
2022/09/22 04:44:33;;;;;;;12.90;8.87;;;6.40;1.00;;;;;;5052353;28;20267;-45
2022/09/22 04:46:59;;;;;;;15.13;10.00;;;6.30;1.00;;;;;;5052220;28;20479;-45
2022/09/22 04:49:24;;;;;;;12.63;10.23;;;6.30;1.00;;;;;;5052089;28;20190;-45
2022/09/22 04:51:50;;;;;;;15.70;10.43;;;6.20;1.00;;;;;;5052297;28;20209;-45
2022/09/22 04:54:15;;;;;;;13.20;9.80;;;6.20;1.00;;;;;;5052413;28;20175;-45
2022/09/22 04:56:41;;;;;;;14.47;10.40;;;6.20;1.00;;;;;;5051871;28;20177;-45
2022/09/22 04:59:07;;;;;;;15.97;10.30;;;6.20;1.00;;;;;;5051960;28;20231;-45
2022/09/22 05:01:33;;;;;;;15.67;9.40;;;6.20;1.00;;;;;;5052100;28;20558;-45
2022/09/22 05:03:58;;;;;;;12.37;8.90;;;6.20;1.00;;;;;;5051999;28;20221;-45
2022/09/22 05:06:25;;;;;;;11.60;9.87;;;6.20;1.00;;;;;;5051657;28;20179;-45
2022/09/22 05:08:50;;;;;;;15.73;9.00;;;6.20;1.00;;;;;;5051460;28;20182;-45
2022/09/22 05:11:18;;;;;;;12.93;10.43;;;6.10;1.00;;;;;;5051658;28;20412;-45
2022/09/22 05:13:43;;;;;;;13.60;9.83;;;6.10;1.00;;;;;;5051328;28;20201;-45
2022/09/22 05:16:09;;;;;;;15.73;10.40;;;6.10;1.00;;;;;;5051595;28;20755;-45
2022/09/22 05:18:34;;;;;;;13.53;10.37;;;6.10;1.00;;;;;;5051620;28;20773;-45
2022/09/22 05:21:00;;;;;;;10.40;9.10;;;6.10;1.00;;;;;;5051370;28;20241;-45
2022/09/22 05:23:26;;;;;;;17.50;11.60;;;6.10;1.00;;;;;;5052009;28;20343;-45
2022/09/22 05:25:52;;;;;;;22.20;12.27;;;6.10;1.00;;;;;;5051169;28;20476;-45
2022/09/22 05:28:19;;;;;;;16.77;11.17;;;6.10;1.00;;;;;;5051350;28;20255;-45
2022/09/22 05:30:46;;;;;;;12.70;10.53;;;6.20;1.00;;;;;;5051360;28;20552;-45
2022/09/22 05:33:11;;;;;;;15.13;10.90;;;6.20;1.00;;;;;;5051176;28;20483;-45
2022/09/22 05:35:37;;;;;;;19.17;11.20;;;6.20;1.00;;;;;;5051031;28;20401;-47
2022/09/22 05:38:02;;;;;;;16.83;9.40;;;6.30;1.00;;;;;;5051126;28;20188;-45
2022/09/22 05:40:28;;;;;;;13.00;9.43;;;6.20;1.00;;;;;;5051160;28;20201;-45
2022/09/22 05:42:54;;;;;;;17.40;11.43;;;6.30;1.00;;;;;;5051164;28;20190;-45
2022/09/22 05:45:20;;;;;;;13.30;10.40;;;6.30;1.00;;;;;;5051368;28;20186;-46
2022/09/22 05:47:46;;;;;;;15.73;11.50;;;6.30;1.00;;;;;;5050859;28;20554;-45
2022/09/22 05:50:14;;;;;;;18.20;10.90;;;6.40;1.00;;;;;;5051012;28;20413;-45
2022/09/22 05:52:40;;;;;;;15.50;11.60;;;6.40;1.00;;;;;;5051219;28;20943;-45
2022/09/22 05:55:07;;;;;;;13.20;10.47;;;6.50;1.00;;;;;;5051337;28;20413;-45
2022/09/22 05:57:33;;;;;;;14.03;10.80;;;6.50;1.00;;;;;;5050896;28;20198;-45
2022/09/22 05:59:59;;;;;;;21.00;11.53;;;6.60;1.00;;;;;;5051130;28;20413;-45
2022/09/22 06:02:24;;;;;;;19.20;11.43;;;6.60;1.00;;;;;;5051146;28;20458;-47
2022/09/22 06:04:51;;;;;;;21.33;11.30;;;6.70;1.00;;;;;;5051232;28;20269;-47
2022/09/22 06:07:19;;;;;;;19.60;12.97;;;6.70;1.00;;;;;;5051258;28;20178;-47
2022/09/22 06:09:45;;;;;;;17.83;12.57;;;6.80;1.00;;;;;;5050741;28;20417;-47
2022/09/22 06:12:11;;;;;;;15.67;11.03;;;6.80;1.00;;;;;;5050756;28;20487;-47
2022/09/22 06:14:37;;;;;;;22.27;11.37;;;6.90;1.00;;;;;;5048492;28;20437;-47
2022/09/22 06:17:03;;;;;;;15.43;10.70;;;6.90;1.00;;;;;;5048385;28;20898;-46
2022/09/22 06:19:28;;;;;;;18.13;12.50;;;6.90;1.00;;;;;;5050388;28;20657;-47
2022/09/22 06:21:54;;;;;;;17.33;12.93;;;7.00;1.00;;;;;;5050499;28;20186;-46
2022/09/22 06:24:22;;;;;;;19.50;13.53;;;7.10;1.00;;;;;;5045128;28;20187;-48
2022/09/22 06:26:47;;;;;;;24.63;13.00;;;7.20;1.00;;;;;;5048161;28;21093;-47
2022/09/22 06:29:13;;;;;;;22.20;14.53;;;7.30;1.00;;;;;;5050050;28;20436;-47
2022/09/22 06:31:39;;;;;;;20.80;16.07;;;7.30;1.00;;;;;;5052986;28;20209;-47
2022/09/22 06:34:04;;;;;;;19.37;14.97;;;7.50;1.00;;;;;;5043941;28;20321;-47
2022/09/22 06:36:30;;;;;;;20.23;14.23;;;7.60;1.00;;;;;;5049467;28;20237;-48
2022/09/22 06:38:59;;;;;;;21.07;16.07;;;7.70;1.00;;;;;;5039856;28;20191;-47
2022/09/22 06:41:31;;;;;;;20.93;15.83;;;7.90;1.00;;;;;;5050089;28;20189;-47
2022/09/22 06:43:57;;;;;;;36.40;21.23;;;8.00;1.00;;;;;;5050380;28;20416;-47
2022/09/22 06:46:24;;;;;;;33.87;21.60;;;8.20;1.00;;;;;;5050413;28;20824;-48
2022/09/22 06:48:56;;;;;;;38.80;24.20;;;8.40;1.00;;;;;;5046339;28;20182;-47
2022/09/22 06:51:31;;;;;;;29.87;21.63;;;8.60;1.00;;;;;;5039934;28;20465;-48
2022/09/22 06:53:58;;;;;;;37.50;23.87;;;8.90;1.00;;;;;;5042007;28;20452;-47
2022/09/22 06:56:25;;;;;;;35.40;23.90;;;9.10;1.00;;;;;;5049956;28;20421;-47
2022/09/22 06:58:57;;;;;;;39.63;24.07;;;9.30;1.00;;;;;;5050005;28;20429;-48
2022/09/22 07:01:23;;;;;;;36.10;23.60;;;9.60;1.00;;;;;;5050055;28;20405;-47
2022/09/22 07:03:50;;;;;;;30.40;23.30;;;9.80;1.00;;;;;;5050129;28;20401;-47
2022/09/22 07:06:18;;;;;;;34.83;23.50;;;10.20;1.00;;;;;;5049336;28;20408;-47
2022/09/22 07:08:47;;;;;;;34.23;22.27;;;10.60;1.00;;;;;;5044135;28;20452;-47
2022/09/22 07:11:14;;;;;;;24.70;19.00;;;11.10;1.00;;;;;;5049328;28;20448;-48
2022/09/22 07:13:41;;;;;;;25.00;16.47;;;11.70;1.00;;;;;;5039516;28;20449;-48
2022/09/22 07:16:11;;;;;;;19.70;13.97;;;12.30;1.00;;;;;;5029804;28;20571;-47
2022/09/22 07:18:41;;;;;;;12.10;10.70;;;13.00;99.90;;;;;;5030140;28;20414;-48
2022/09/22 07:21:11;;;;;;;12.63;9.07;;;13.60;99.90;;;;;;5030359;28;20406;-48
2022/09/22 07:23:36;;;;;;;9.43;7.10;;;14.10;1.00;;;;;;5030276;28;20410;-47
2022/09/22 07:26:04;;;;;;;11.00;6.50;;;14.60;1.00;;;;;;5029790;28;20788;-47
2022/09/22 07:28:31;;;;;;;7.53;6.20;;;15.00;99.90;;;;;;5029840;28;20535;-48
2022/09/22 07:31:05;;;;;;;10.87;5.97;;;15.60;1.00;;;;;;5029921;28;20445;-48
2022/09/22 07:33:32;;;;;;;9.27;5.50;;;16.00;99.90;;;;;;5029985;28;20874;-48
2022/09/22 07:36:07;;;;;;;12.47;5.77;;;16.40;1.00;;;;;;5031473;28;20821;-48
2022/09/22 07:38:37;;;;;;;9.00;4.80;;;16.80;1.00;;;;;;5033768;28;20420;-50
2022/09/22 07:41:05;;;;;;;8.27;6.10;;;17.10;1.00;;;;;;5033555;28;20441;-47
2022/09/22 07:43:32;;;;;;;8.53;5.70;;;17.40;1.00;;;;;;5033728;28;20406;-49
2022/09/22 07:45:57;;;;;;;13.27;7.30;;;17.80;1.00;;;;;;5033495;28;20413;-48
2022/09/22 07:48:36;;;;;;;11.10;6.00;;;18.00;1.00;;;;;;5033514;28;20481;-48
2022/09/22 07:51:11;;;;;;;14.57;6.23;;;18.20;1.00;;;;;;5033221;28;20520;-48
2022/09/22 07:53:38;;;;;;;11.83;5.63;;;18.50;1.00;;;;;;5033536;28;20406;-49
2022/09/22 07:56:11;;;;;;;10.83;5.20;;;18.70;1.00;;;;;;5033383;28;20413;-49
2022/09/22 07:58:38;;;;;;;8.83;5.47;;;19.00;1.00;;;;;;5032995;28;20758;-45
2022/09/22 08:01:06;;;;;;;11.80;5.17;;;19.10;1.00;;;;;;5033240;28;21075;-45
2022/09/22 08:03:31;;;;;;;10.80;5.17;;;19.30;1.00;;;;;;5033187;28;20449;-46
2022/09/22 08:06:06;;;;;;;7.07;4.53;;;19.60;1.00;;;;;;5032753;28;20441;-45
2022/09/22 08:08:33;;;;;;;9.70;5.00;;;19.80;1.00;;;;;;5033242;28;20162;-45
2022/09/22 08:11:06;;;;;;;9.23;4.27;;;20.00;1.00;;;;;;5033055;28;20414;-46
2022/09/22 08:13:33;;;;;;;9.90;4.33;;;20.20;1.00;;;;;;5041309;28;20502;-46
2022/09/22 08:16:01;;;;;;;9.40;3.87;;;20.40;1.00;;;;;;5051936;28;20436;-46
2022/09/22 08:18:27;;;;;;;14.17;3.80;;;20.50;1.00;;;;;;5051818;28;20421;-45
2022/09/22 08:20:53;;;;;;;9.27;4.20;;;20.70;1.00;;;;;;5052878;28;20399;-46
2022/09/22 08:23:18;;;;;;;7.80;3.00;;;20.90;1.00;;;;;;5053206;28;20187;-46
2022/09/22 08:25:44;;;;;;;7.73;3.20;;;20.90;1.00;;;;;;5053135;28;20325;-46
2022/09/22 08:28:09;;;;;;;7.90;2.83;;;21.00;1.00;;;;;;5052659;28;20178;-46
2022/09/22 08:30:35;;;;;;;4.13;2.67;;;21.20;99.90;;;;;;5052800;28;20198;-46
2022/09/22 08:33:00;;;;;;;6.37;2.80;;;21.10;99.90;;;;;;5052270;28;20238;-46
2022/09/22 08:35:26;;;;;;;9.30;3.37;;;21.00;99.90;;;;;;5052655;28;20202;-45
2022/09/22 08:37:52;;;;;;;10.57;2.70;;;21.00;99.90;;;;;;5052591;28;20188;-46
2022/09/22 08:40:22;;;;;;;5.57;2.73;;;21.20;99.90;;;;;;5051269;28;20170;-46
2022/09/22 08:42:49;;;;;;;6.03;2.57;;;21.40;99.90;;;;;;5052455;28;20198;-45
2022/09/22 08:45:32;;;;;;;4.60;2.20;;;21.50;99.90;;;;;;5052022;28;20797;-46
2022/09/22 08:53:52;;;;;;;8.80;1.97;;;21.30;99.90;;;;;;5053185;28;20485;-49
2022/09/22 08:56:34;;;;;;;2.97;2.00;;;21.50;99.90;;;;;;5052453;28;20408;-46
2022/09/22 08:59:21;;;;;;;4.07;2.17;;;21.60;99.90;;;;;;5052163;28;20429;-49
2022/09/22 09:02:08;;;;;;;5.27;2.20;;;21.20;99.90;;;;;;5052532;28;20416;-49
2022/09/22 09:04:49;;;;;;;4.33;2.20;;;20.90;99.90;;;;;;5052269;28;20933;-49
2022/09/22 09:07:23;;;;;;;3.73;1.70;;;20.60;99.90;;;;;;5052060;28;20408;-49
2022/09/22 09:09:58;;;;;;;9.80;1.80;;;19.90;99.90;;;;;;5052512;28;20402;-46
2022/09/22 09:12:53;;;;;;;4.73;1.80;;;19.40;99.90;;;;;;5051534;28;20929;-46
2022/09/22 09:15:32;;;;;;;6.03;1.60;;;18.90;99.90;;;;;;5049513;28;20483;-46
2022/09/22 09:18:02;;;;;;;6.20;1.80;;;18.50;99.90;;;;;;5051752;28;20416;-46
2022/09/22 09:20:43;;;;;;;6.20;1.60;;;18.10;99.90;;;;;;5051882;28;20431;-46
2022/09/22 09:23:16;;;;;;;4.60;1.70;;;17.70;99.90;;;;;;5052180;28;20484;-45
2022/09/22 09:25:45;;;;;;;4.20;1.90;;;17.40;99.90;;;;;;5051758;28;20848;-45
2022/09/22 09:28:20;;;;;;;2.77;1.50;;;17.20;99.90;;;;;;5051682;28;20478;-46
2022/09/22 09:30:52;;;;;;;3.80;1.50;;;17.10;99.90;;;;;;5052198;28;20785;-45
2022/09/22 09:33:39;;;;;;;5.40;1.90;;;17.00;99.90;;;;;;5051771;28;21010;-46
2022/09/22 09:36:14;;;;;;;8.60;1.87;;;16.90;99.90;;;;;;5051401;28;20431;-45
2022/09/22 09:38:47;;;;;;;4.07;1.70;;;16.90;99.90;;;;;;5051721;28;20400;-45
2022/09/22 09:41:18;;;;;;;9.90;2.73;;;16.90;99.90;;;;;;5051464;28;20425;-50
2022/09/22 09:43:44;;;;;;;4.67;1.67;;;16.80;99.90;;;;;;5051455;28;20405;-49
2022/09/22 09:46:47;;;;;;;2.70;1.30;;;16.80;99.90;;;;;;5051584;28;20455;-48
2022/09/22 09:49:15;;;;;;;2.30;1.57;;;16.70;99.90;;;;;;5051274;28;20419;-45
2022/09/22 09:51:47;;;;;;;4.00;1.40;;;16.90;99.90;;;;;;5051195;28;20997;-47
2022/09/22 09:54:14;;;;;;;3.43;1.73;;;17.00;99.90;;;;;;5051041;28;20424;-49
2022/09/22 09:57:15;;;;;;;2.80;1.40;;;17.10;99.90;;;;;;5051340;28;20543;-45
2022/09/22 10:02:46;;;;;;;8.50;1.50;;;17.20;99.90;;;;;;5051267;28;20909;-45
2022/09/22 10:05:14;;;;;;;4.37;1.40;;;17.20;99.90;;;;;;5051279;28;21252;-45
2022/09/22 10:07:57;;;;;;;3.93;1.37;;;17.30;99.90;;;;;;5051105;28;20492;-45
2022/09/22 10:10:28;;;;;;;6.27;2.03;;;17.30;99.90;;;;;;5051050;28;20466;-45
2022/09/22 10:13:03;;;;;;;10.63;1.57;;;17.30;99.90;;;;;;5051454;28;20492;-45
2022/09/22 10:15:30;;;;;;;5.60;2.03;;;17.50;99.90;;;;;;5050616;28;20740;-45
2022/09/22 10:17:56;;;;;;;3.97;1.73;;;17.70;99.90;;;;;;5050890;28;20455;-45
2022/09/22 10:20:25;;;;;;;2.10;1.37;;;18.10;99.90;;;;;;5050823;28;20405;-45
2022/09/22 10:22:54;;;;;;;7.20;1.40;;;18.60;99.90;;;;;;5050745;28;20275;-45
2022/09/22 10:25:31;;;;;;;4.43;1.90;;;19.00;99.90;;;;;;5050542;28;20571;-49
2022/09/22 10:28:00;;;;;;;4.70;1.93;;;19.30;99.90;;;;;;5051014;28;20401;-48
2022/09/22 10:30:26;;;;;;;4.37;1.57;;;19.60;99.90;;;;;;5050330;28;20405;-49
2022/09/22 10:33:17;;;;;;;9.47;2.20;;;20.00;99.90;;;;;;5050786;28;20472;-48
2022/09/22 10:35:44;;;;;;;2.80;2.03;;;20.40;99.90;;;;;;5050614;28;20449;-49
2022/09/22 10:38:21;;;;;;;7.57;2.00;;;21.40;99.90;;;;;;5049299;28;20436;-49
2022/09/22 10:41:01;;;;;;;7.27;2.37;;;22.20;99.90;;;;;;5050915;28;20412;-48
2022/09/22 10:43:48;;;;;;;6.33;1.80;;;22.80;99.90;;;;;;5051528;28;20494;-49
2022/09/22 10:46:39;;;;;;;4.37;1.90;;;23.40;99.90;;;;;;5051105;28;20416;-49
2022/09/22 10:49:27;;;;;;;4.27;2.37;;;24.20;99.90;;;;;;5050979;28;20956;-49
2022/09/22 10:52:20;;;;;;;4.73;2.40;;;24.60;99.90;;;;;;5051241;28;20539;-50
2022/09/22 10:54:52;;;;;;;7.33;2.30;;;24.80;99.90;;;;;;5049929;28;20409;-49
2022/09/22 10:57:30;;;;;;;5.90;2.00;;;24.90;99.90;;;;;;5050592;28;20409;-49
2022/09/22 11:00:09;;;;;;;6.30;2.63;;;24.90;99.90;;;;;;5049505;28;20435;-49
2022/09/22 11:02:52;;;;;;;5.47;2.67;;;24.00;99.90;;;;;;5051106;28;21300;-49
2022/09/22 11:14:42;;;;;;;6.20;3.30;;;25.70;99.90;;;;;;5054539;28;20520;-49
2022/09/22 11:17:21;;;;;;;9.70;2.40;;;26.30;99.90;;;;;;5054217;28;20412;-50
2022/09/22 11:20:05;;;;;;;6.33;2.40;;;27.00;99.90;;;;;;5054505;28;20455;-49
2022/09/22 11:22:49;;;;;;;9.50;2.50;;;27.30;99.90;;;;;;5054148;28;20999;-49
2022/09/22 11:25:21;;;;;;;6.60;2.33;;;27.70;99.90;;;;;;5054099;28;20484;-49
2022/09/22 11:28:16;;;;;;;3.57;2.40;;;27.60;99.90;;;;;;5054003;28;20408;-50
2022/09/22 11:30:48;;;;;;;7.17;2.20;;;27.60;99.90;;;;;;5053845;28;20404;-50
2022/09/22 11:33:35;;;;;;;5.60;1.77;;;27.70;99.90;;;;;;5053988;28;20486;-55
2022/09/22 11:36:22;;;;;;;6.70;2.40;;;28.00;99.90;;;;;;5053948;28;20413;-50
2022/09/22 11:39:15;;;;;;;4.23;2.03;;;27.80;99.90;;;;;;5054191;28;20413;-50
2022/09/22 11:42:27;;;;;;;6.40;2.40;;;26.40;99.90;;;;;;5054154;28;20399;-49
2022/09/22 11:45:06;;;;;;;4.60;1.80;;;26.10;99.90;;;;;;5053813;28;20416;-49
2022/09/22 11:47:41;;;;;;;7.77;1.90;;;24.40;99.90;;;;;;5053932;28;20785;-49
2022/09/22 11:50:21;;;;;;;4.87;2.07;;;23.00;99.90;;;;;;5053935;28;20483;-50
2022/09/22 11:53:23;;;;;;;7.40;1.93;;;22.00;99.90;;;;;;5053891;28;20459;-49
2022/09/22 11:56:01;;;;;;;6.30;2.10;;;21.60;99.90;;;;;;5053878;28;20436;-49
2022/09/22 11:58:30;;;;;;;4.03;1.93;;;22.50;99.90;;;;;;5053474;28;20852;-49
2022/09/22 12:01:03;;;;;;;3.80;1.40;;;23.80;99.90;;;;;;5054001;28;20431;-49
2022/09/22 12:03:38;;;;;;;3.57;1.57;;;24.70;99.90;;;;;;5053534;28;20405;-49
2022/09/22 12:06:09;;;;;;;5.33;2.40;;;24.10;99.90;;;;;;5053429;28;20484;-49
2022/09/22 12:08:52;;;;;;;3.40;1.80;;;23.10;99.90;;;;;;5053639;28;20428;-49
2022/09/22 12:11:19;;;;;;;2.73;1.90;;;23.10;99.90;;;;;;5053909;28;20898;-49
2022/09/22 12:13:48;;;;;;;5.30;1.70;;;23.70;99.90;;;;;;5053614;28;20563;-49
2022/09/22 12:16:41;;;;;;;5.60;1.70;;;24.20;99.90;;;;;;5054195;28;20397;-49
2022/09/22 12:19:18;;;;;;;2.97;1.60;;;23.40;99.90;;;;;;5054002;28;20443;-49
2022/09/22 12:22:04;;;;;;;3.23;1.57;;;22.20;99.90;;;;;;5047704;28;20454;-49
2022/09/22 12:24:30;;;;;;;4.00;1.80;;;21.30;99.90;;;;;;5050853;28;20448;-48
2022/09/22 12:26:56;;;;;;;3.57;1.70;;;20.60;99.90;;;;;;5053399;28;20519;-45
2022/09/22 12:29:26;;;;;;;3.23;1.80;;;20.10;99.90;;;;;;5048564;28;20957;-45
2022/09/22 12:31:55;;;;;;;2.70;1.40;;;19.80;99.90;;;;;;5042120;28;20207;-45
2022/09/22 12:34:42;;;;;;;3.10;1.70;;;19.70;99.90;;;;;;5043295;28;20498;-48
2022/09/22 12:37:10;;;;;;;2.40;1.50;;;19.40;99.90;;;;;;5052996;28;20490;-48
2022/09/22 12:39:42;;;;;;;8.63;1.77;;;19.40;99.90;;;;;;5053499;28;20429;-49
2022/09/22 12:42:19;;;;;;;4.87;1.67;;;19.30;99.90;;;;;;5053578;28;20425;-49
2022/09/22 12:44:56;;;;;;;5.03;1.60;;;20.20;99.90;;;;;;5053399;28;20475;-49
2022/09/22 12:47:39;;;;;;;8.00;2.03;;;22.00;99.90;;;;;;5053832;28;20428;-45
2022/09/22 12:50:33;;;;;;;3.87;1.70;;;23.30;99.90;;;;;;5033874;28;20402;-49
2022/09/22 12:53:08;;;;;;;6.63;1.70;;;24.50;99.90;;;;;;5033472;28;20475;-49
2022/09/22 12:55:37;;;;;;;7.23;1.70;;;24.30;99.90;;;;;;5033179;28;20413;-46
2022/09/22 12:58:19;;;;;;;3.80;1.20;;;23.50;99.90;;;;;;5033311;28;20414;-50
2022/09/22 13:00:46;;;;;;;4.03;1.53;;;22.40;99.90;;;;;;5032635;28;20444;-47
2022/09/22 13:03:24;;;;;;;7.67;1.77;;;21.60;99.90;;;;;;5033029;28;20453;-46
2022/09/22 13:05:51;;;;;;;7.37;2.10;;;21.20;99.90;;;;;;5044264;28;20416;-46
2022/09/22 13:08:21;;;;;;;4.50;1.60;;;20.90;99.90;;;;;;5053166;28;20415;-46
2022/09/22 13:10:56;;;;;;;10.97;2.07;;;20.50;99.90;;;;;;5053391;28;20441;-46
2022/09/22 13:13:31;;;;;;;4.33;1.40;;;20.20;99.90;;;;;;5045979;28;20514;-46
2022/09/22 13:16:03;;;;;;;5.03;1.83;;;19.90;99.90;;;;;;5033125;28;20410;-46
2022/09/22 13:18:42;;;;;;;4.60;2.23;;;19.60;99.90;;;;;;5032790;28;20430;-46
2022/09/22 13:21:10;;;;;;;4.30;1.70;;;19.40;99.90;;;;;;5031396;28;20739;-45
2022/09/22 13:23:53;;;;;;;5.87;1.90;;;19.30;99.90;;;;;;5047805;28;20767;-49
2022/09/22 13:26:35;;;;;;;6.53;1.73;;;19.30;99.90;;;;;;5052489;28;20611;-46
2022/09/22 13:29:09;;;;;;;2.77;1.40;;;19.60;99.90;;;;;;5052712;28;20470;-46